Time,TemperatureF,DewpointF,PressureIn,WindDirection,WindDirectionDegrees,WindSpeedMPH,WindSpeedGustMPH,Humidity,HourlyPrecipIn,Conditions,Clouds,dailyrainin,SolarRadiationWatts/m^2,SoftwareType,DateUTC
2013-03-26 00:02:00,44.0,43.0,-100.00,East,100,0.0,2.0,95,-99.99,,,0.00,0.000000,,2013-03-26 07:02:00,
2013-03-26 00:12:00,44.0,43.0,-100.00,East,100,0.0,2.0,95,-99.99,,,0.00,0.000000,,2013-03-26 07:12:00,
2013-03-26 00:42:00,44.0,43.0,-100.00,ESE,112,1.0,3.0,96,-99.99,,,0.00,0.000000,,2013-03-26 07:42:00,
2013-03-26 00:52:00,44.0,43.0,-100.00,ESE,112,1.0,3.0,96,-99.99,,,0.00,0.000000,,2013-03-26 07:52:00,
2013-03-26 01:02:00,44.0,43.0,-100.00,ESE,112,1.0,3.0,96,-99.99,,,0.00,0.000000,,2013-03-26 08:02:00,
2013-03-26 01:12:00,44.0,43.0,-100.00,ESE,112,1.0,3.0,96,-99.99,,,0.00,0.000000,,2013-03-26 08:12:00,
2013-03-26 01:42:00,45.0,44.0,-100.00,SSW,204,1.0,3.0,96,-99.99,,,0.00,0.000000,,2013-03-26 08:42:00,
2013-03-26 01:52:00,45.0,44.0,-100.00,SSW,204,1.0,3.0,96,-99.99,,,0.00,0.000000,,2013-03-26 08:52:00,
2013-03-26 02:02:00,45.0,44.0,-100.00,SSW,204,1.0,3.0,96,-99.99,,,0.00,0.000000,,2013-03-26 09:02:00,
2013-03-26 02:12:00,45.0,44.0,-100.00,SSW,204,1.0,3.0,96,-99.99,,,0.00,0.000000,,2013-03-26 09:12:00,
2013-03-26 02:42:00,45.0,44.0,-100.00,SSW,199,1.0,3.0,94,-99.99,,,0.00,0.000000,,2013-03-26 09:42:00,
2013-03-26 02:52:00,45.0,44.0,-100.00,SSW,199,1.0,3.0,94,-99.99,,,0.00,0.000000,,2013-03-26 09:52:00,
2013-03-26 03:02:00,45.0,44.0,-100.00,SSW,199,1.0,3.0,94,-99.99,,,0.00,0.000000,,2013-03-26 10:02:00,
2013-03-26 03:12:00,45.0,44.0,-100.00,SSW,199,1.0,3.0,94,-99.99,,,0.00,0.000000,,2013-03-26 10:12:00,
2013-03-26 03:42:00,45.0,43.0,-100.00,SSW,195,2.0,5.0,93,-99.99,,,0.00,0.000000,,2013-03-26 10:42:00,
2013-03-26 03:53:00,45.0,43.0,-100.00,SSW,195,2.0,5.0,93,-99.99,,,0.00,0.000000,,2013-03-26 10:53:00,
2013-03-26 04:02:00,45.0,43.0,-100.00,SSW,195,2.0,5.0,93,-99.99,,,0.00,0.000000,,2013-03-26 11:02:00,
2013-03-26 04:12:00,45.0,43.0,-100.00,SSW,195,2.0,5.0,93,-99.99,,,0.00,0.000000,,2013-03-26 11:12:00,
2013-03-26 04:42:00,45.0,43.0,-100.00,ESE,117,0.0,3.0,93,-99.99,,,0.00,0.000000,,2013-03-26 11:42:00,
2013-03-26 04:52:00,45.0,43.0,-100.00,ESE,117,0.0,3.0,93,-99.99,,,0.00,0.000000,,2013-03-26 11:52:00,
2013-03-26 05:02:00,45.0,43.0,-100.00,ESE,117,0.0,3.0,93,-99.99,,,0.00,0.000000,,2013-03-26 12:02:00,
2013-03-26 05:12:00,45.0,43.0,-100.00,ESE,117,0.0,3.0,93,-99.99,,,0.00,0.000000,,2013-03-26 12:12:00,
2013-03-26 05:42:00,45.0,43.0,-100.00,ESE,116,0.0,2.0,93,-99.99,,,0.00,0.000000,,2013-03-26 12:42:00,
2013-03-26 05:52:00,45.0,43.0,-100.00,ESE,116,0.0,2.0,93,-99.99,,,0.00,0.000000,,2013-03-26 12:52:00,
2013-03-26 06:02:00,45.0,43.0,-100.00,ESE,116,0.0,2.0,93,-99.99,,,0.00,0.000000,,2013-03-26 13:02:00,
2013-03-26 06:11:00,45.0,43.0,-100.00,ESE,116,0.0,2.0,93,-99.99,,,0.00,0.000000,,2013-03-26 13:11:00,
2013-03-26 06:42:00,45.0,43.0,-100.00,ESE,108,1.0,3.0,94,-99.99,,,0.00,0.000000,,2013-03-26 13:42:00,
2013-03-26 06:52:00,45.0,43.0,-100.00,ESE,108,1.0,3.0,94,-99.99,,,0.00,0.000000,,2013-03-26 13:52:00,
2013-03-26 07:02:00,45.0,43.0,-100.00,ESE,108,1.0,3.0,94,-99.99,,,0.00,0.000000,,2013-03-26 14:02:00,
2013-03-26 07:11:00,45.0,43.0,-100.00,ESE,108,1.0,3.0,94,-99.99,,,0.00,0.000000,,2013-03-26 14:11:00,
2013-03-26 07:42:00,44.0,43.0,-100.00,ENE,70,0.0,1.0,95,-99.99,,,0.00,1.980000,,2013-03-26 14:42:00,
2013-03-26 07:52:00,44.0,43.0,-100.00,ENE,70,0.0,1.0,95,-99.99,,,0.00,1.980000,,2013-03-26 14:52:00,
2013-03-26 08:02:00,44.0,43.0,-100.00,ENE,70,0.0,1.0,95,-99.99,,,0.00,1.980000,,2013-03-26 15:02:00,
2013-03-26 08:12:00,44.0,43.0,-100.00,ENE,70,0.0,1.0,95,-99.99,,,0.00,1.980000,,2013-03-26 15:12:00,
2013-03-26 08:42:00,45.0,44.0,-100.00,ENE,72,1.0,2.0,95,-99.99,,,0.00,68.919998,,2013-03-26 15:42:00,
2013-03-26 08:53:00,45.0,44.0,-100.00,ENE,72,1.0,2.0,95,-99.99,,,0.00,68.919998,,2013-03-26 15:53:00,
2013-03-26 09:02:00,45.0,44.0,-100.00,ENE,72,1.0,2.0,95,-99.99,,,0.00,68.919998,,2013-03-26 16:02:00,
2013-03-26 09:12:00,45.0,44.0,-100.00,ENE,72,1.0,2.0,95,-99.99,,,0.00,68.919998,,2013-03-26 16:12:00,
2013-03-26 09:42:00,48.0,45.0,-100.00,ENE,61,2.0,4.0,90,-99.99,,,0.00,173.050003,,2013-03-26 16:42:00,
2013-03-26 09:53:00,48.0,45.0,-100.00,ENE,61,2.0,4.0,90,-99.99,,,0.00,173.050003,,2013-03-26 16:53:00,
2013-03-26 10:02:00,48.0,45.0,-100.00,ENE,61,2.0,4.0,90,-99.99,,,0.00,173.050003,,2013-03-26 17:02:00,
2013-03-26 10:12:00,48.0,45.0,-100.00,ENE,61,2.0,4.0,90,-99.99,,,0.00,173.050003,,2013-03-26 17:12:00,
2013-03-26 10:42:00,52.0,44.0,-100.00,NE,35,1.0,4.0,73,-99.99,,,0.00,547.159973,,2013-03-26 17:42:00,
2013-03-26 10:53:00,52.0,44.0,-100.00,NE,35,1.0,4.0,73,-99.99,,,0.00,547.159973,,2013-03-26 17:53:00,
2013-03-26 11:02:00,52.0,44.0,-100.00,NE,35,1.0,4.0,73,-99.99,,,0.00,547.159973,,2013-03-26 18:02:00,
2013-03-26 11:12:00,52.0,44.0,-100.00,NE,35,1.0,4.0,73,-99.99,,,0.00,547.159973,,2013-03-26 18:12:00,
2013-03-26 12:42:00,53.0,44.0,-100.00,NW,311,4.0,10.0,70,-99.99,,,0.00,767.049988,,2013-03-26 19:42:00,
2013-03-26 12:53:00,53.0,44.0,-100.00,NW,311,4.0,10.0,70,-99.99,,,0.00,767.049988,,2013-03-26 19:53:00,
2013-03-26 13:02:00,53.0,44.0,-100.00,NW,311,4.0,10.0,70,-99.99,,,0.00,767.049988,,2013-03-26 20:02:00,
2013-03-26 13:12:00,53.0,44.0,-100.00,NW,311,4.0,10.0,70,-99.99,,,0.00,767.049988,,2013-03-26 20:12:00,
2013-03-26 13:32:00,53.0,45.0,-100.00,NW,309,4.0,9.0,73,-99.99,,,0.00,807.380005,,2013-03-26 20:32:00,
2013-03-26 13:42:00,53.0,45.0,-100.00,NW,309,4.0,9.0,73,-99.99,,,0.00,807.380005,,2013-03-26 20:42:00,
2013-03-26 13:52:00,53.0,45.0,-100.00,NW,309,4.0,9.0,73,-99.99,,,0.00,807.380005,,2013-03-26 20:52:00,
2013-03-26 14:02:00,53.0,45.0,-100.00,NW,309,4.0,9.0,73,-99.99,,,0.00,807.380005,,2013-03-26 21:02:00,
2013-03-26 14:12:00,53.0,45.0,-100.00,NW,309,4.0,9.0,73,-99.99,,,0.00,807.380005,,2013-03-26 21:12:00,
2013-03-26 14:42:00,53.0,45.0,-100.00,NW,318,4.0,10.0,74,-99.99,,,0.00,783.789978,,2013-03-26 21:42:00,
2013-03-26 14:52:00,53.0,45.0,-100.00,NW,318,4.0,10.0,74,-99.99,,,0.00,783.789978,,2013-03-26 21:52:00,
2013-03-26 15:01:00,53.0,45.0,-100.00,NW,318,4.0,10.0,74,-99.99,,,0.00,783.789978,,2013-03-26 22:01:00,
2013-03-26 15:12:00,53.0,45.0,-100.00,NW,318,4.0,10.0,74,-99.99,,,0.00,783.789978,,2013-03-26 22:12:00,
2013-03-26 15:42:00,54.0,45.0,-100.00,NNW,339,6.0,11.0,73,-99.99,,,0.00,713.469971,,2013-03-26 22:42:00,
2013-03-26 15:52:00,54.0,45.0,-100.00,NNW,339,6.0,11.0,73,-99.99,,,0.00,713.469971,,2013-03-26 22:52:00,
2013-03-26 16:01:00,54.0,45.0,-100.00,NNW,339,6.0,11.0,73,-99.99,,,0.00,713.469971,,2013-03-26 23:01:00,
2013-03-26 16:10:00,54.0,45.0,-100.00,NNW,339,6.0,11.0,73,-99.99,,,0.00,713.469971,,2013-03-26 23:10:00,
2013-03-26 16:42:00,54.0,45.0,-100.00,NNW,334,5.0,10.0,72,-99.99,,,0.00,613.179993,,2013-03-26 23:42:00,
2013-03-26 16:52:00,54.0,45.0,-100.00,NNW,334,5.0,10.0,72,-99.99,,,0.00,613.179993,,2013-03-26 23:52:00,
2013-03-26 17:02:00,54.0,45.0,-100.00,NNW,334,5.0,10.0,72,-99.99,,,0.00,613.179993,,2013-03-27 00:02:00,
2013-03-26 17:12:00,54.0,45.0,-100.00,NNW,334,5.0,10.0,72,-99.99,,,0.00,613.179993,,2013-03-27 00:12:00,
2013-03-26 18:42:00,51.0,45.0,-100.00,NNW,332,3.0,7.0,77,-99.99,,,0.00,126.910004,,2013-03-27 01:42:00,
2013-03-26 18:53:00,51.0,45.0,-100.00,NNW,332,3.0,7.0,77,-99.99,,,0.00,126.910004,,2013-03-27 01:53:00,
2013-03-26 19:02:00,51.0,45.0,-100.00,NNW,332,3.0,7.0,77,-99.99,,,0.00,126.910004,,2013-03-27 02:02:00,
2013-03-26 19:12:00,51.0,45.0,-100.00,NNW,332,3.0,7.0,77,-99.99,,,0.00,126.910004,,2013-03-27 02:12:00,
2013-03-26 19:42:00,50.0,46.0,-100.00,NNW,345,3.0,5.0,84,-99.99,,,0.00,33.700001,,2013-03-27 02:42:00,
2013-03-26 19:53:00,50.0,46.0,-100.00,NNW,345,3.0,5.0,84,-99.99,,,0.00,33.700001,,2013-03-27 02:53:00,
2013-03-26 20:02:00,50.0,46.0,-100.00,NNW,345,3.0,5.0,84,-99.99,,,0.00,33.700001,,2013-03-27 03:02:00,
2013-03-26 20:11:00,50.0,46.0,-100.00,NNW,345,3.0,5.0,84,-99.99,,,0.00,33.700001,,2013-03-27 03:11:00,
2013-03-26 20:42:00,50.0,46.0,-100.00,NNW,341,1.0,4.0,87,-99.99,,,0.00,0.000000,,2013-03-27 03:42:00,
2013-03-26 20:53:00,50.0,46.0,-100.00,NNW,341,1.0,4.0,87,-99.99,,,0.00,0.000000,,2013-03-27 03:53:00,
2013-03-26 21:02:00,50.0,46.0,-100.00,NNW,341,1.0,4.0,87,-99.99,,,0.00,0.000000,,2013-03-27 04:02:00,
2013-03-26 21:12:00,50.0,46.0,-100.00,NNW,341,1.0,4.0,87,-99.99,,,0.00,0.000000,,2013-03-27 04:12:00,
2013-03-26 21:42:00,48.0,46.0,-100.00,ENE,72,1.0,3.0,89,-99.99,,,0.00,0.000000,,2013-03-27 04:42:00,
2013-03-26 21:52:00,48.0,46.0,-100.00,ENE,72,1.0,3.0,89,-99.99,,,0.00,0.000000,,2013-03-27 04:52:00,
2013-03-26 22:02:00,48.0,46.0,-100.00,ENE,72,1.0,3.0,89,-99.99,,,0.00,0.000000,,2013-03-27 05:02:00,
2013-03-26 22:12:00,48.0,46.0,-100.00,ENE,72,1.0,3.0,89,-99.99,,,0.00,0.000000,,2013-03-27 05:12:00,
2013-03-26 22:42:00,48.0,44.0,-100.00,East,91,1.0,3.0,86,-99.99,,,0.00,0.000000,,2013-03-27 05:42:00,
2013-03-26 22:52:00,48.0,44.0,-100.00,East,91,1.0,3.0,86,-99.99,,,0.00,0.000000,,2013-03-27 05:52:00,
2013-03-26 23:02:00,48.0,44.0,-100.00,East,91,1.0,3.0,86,-99.99,,,0.00,0.000000,,2013-03-27 06:02:00,
2013-03-26 23:11:00,48.0,44.0,-100.00,East,91,1.0,3.0,86,-99.99,,,0.00,0.000000,,2013-03-27 06:11:00,
2013-03-26 23:42:00,48.0,44.0,-100.00,ENE,63,1.0,3.0,84,-99.99,,,0.00,0.000000,,2013-03-27 06:42:00,
2013-03-26 23:53:00,48.0,44.0,-100.00,ENE,63,1.0,3.0,84,-99.99,,,0.00,0.000000,,2013-03-27 06:53:00,